sensor_id;sensor_type;location;lat;lon;timestamp;pressure;altitude;pressure_sealevel;temperature
42119;BMP280;27783;42.782;23.274;2023-08-01T00:01:49;95202.59;;;17.40
42119;BMP280;27783;42.782;23.274;2023-08-01T00:04:15;95198.00;;;17.40
42119;BMP280;27783;42.782;23.274;2023-08-01T00:06:41;95198.75;;;17.41
42119;BMP280;27783;42.782;23.274;2023-08-01T00:09:07;95199.63;;;17.38
42119;BMP280;27783;42.782;23.274;2023-08-01T00:11:32;95193.44;;;17.41
42119;BMP280;27783;42.782;23.274;2023-08-01T00:13:58;95196.44;;;17.31
42119;BMP280;27783;42.782;23.274;2023-08-01T00:16:23;95196.63;;;17.36
42119;BMP280;27783;42.782;23.274;2023-08-01T00:18:49;95190.13;;;17.37
42119;BMP280;27783;42.782;23.274;2023-08-01T00:21:15;95189.09;;;17.35
42119;BMP280;27783;42.782;23.274;2023-08-01T00:23:40;95194.28;;;17.05
42119;BMP280;27783;42.782;23.274;2023-08-01T00:26:06;95198.75;;;17.08
42119;BMP280;27783;42.782;23.274;2023-08-01T00:28:31;95197.44;;;17.24
42119;BMP280;27783;42.782;23.274;2023-08-01T00:31:07;95194.47;;;17.10
42119;BMP280;27783;42.782;23.274;2023-08-01T00:33:34;95192.09;;;17.12
42119;BMP280;27783;42.782;23.274;2023-08-01T00:36:00;95193.88;;;16.94
42119;BMP280;27783;42.782;23.274;2023-08-01T00:38:26;95193.84;;;16.70
42119;BMP280;27783;42.782;23.274;2023-08-01T00:40:51;95194.84;;;16.88
42119;BMP280;27783;42.782;23.274;2023-08-01T00:43:16;95195.97;;;16.87
42119;BMP280;27783;42.782;23.274;2023-08-01T00:45:42;95194.72;;;16.91
42119;BMP280;27783;42.782;23.274;2023-08-01T00:48:08;95190.75;;;16.96
42119;BMP280;27783;42.782;23.274;2023-08-01T00:50:33;95191.72;;;16.89
42119;BMP280;27783;42.782;23.274;2023-08-01T00:52:59;95179.91;;;16.66
42119;BMP280;27783;42.782;23.274;2023-08-01T00:55:26;95191.41;;;16.63
42119;BMP280;27783;42.782;23.274;2023-08-01T00:57:53;95181.19;;;16.74
42119;BMP280;27783;42.782;23.274;2023-08-01T01:00:18;95187.44;;;16.80
42119;BMP280;27783;42.782;23.274;2023-08-01T01:02:44;95185.66;;;16.77
42119;BMP280;27783;42.782;23.274;2023-08-01T01:05:09;95188.84;;;16.84
42119;BMP280;27783;42.782;23.274;2023-08-01T01:07:36;95186.47;;;16.86
42119;BMP280;27783;42.782;23.274;2023-08-01T01:10:02;95187.59;;;16.88
42119;BMP280;27783;42.782;23.274;2023-08-01T01:12:27;95175.34;;;16.79
42119;BMP280;27783;42.782;23.274;2023-08-01T01:14:53;95176.81;;;16.80
42119;BMP280;27783;42.782;23.274;2023-08-01T01:17:18;95163.28;;;16.86
42119;BMP280;27783;42.782;23.274;2023-08-01T01:19:44;95169.47;;;16.84
42119;BMP280;27783;42.782;23.274;2023-08-01T01:22:10;95167.25;;;16.34
42119;BMP280;27783;42.782;23.274;2023-08-01T01:24:36;95168.91;;;16.03
42119;BMP280;27783;42.782;23.274;2023-08-01T01:27:04;95171.00;;;16.36
42119;BMP280;27783;42.782;23.274;2023-08-01T01:29:31;95171.91;;;16.17
42119;BMP280;27783;42.782;23.274;2023-08-01T01:31:57;95167.13;;;16.37
42119;BMP280;27783;42.782;23.274;2023-08-01T01:34:24;95165.34;;;16.34
42119;BMP280;27783;42.782;23.274;2023-08-01T01:36:50;95167.88;;;16.13
42119;BMP280;27783;42.782;23.274;2023-08-01T01:39:15;95173.31;;;15.70
42119;BMP280;27783;42.782;23.274;2023-08-01T01:41:41;95182.56;;;15.78
42119;BMP280;27783;42.782;23.274;2023-08-01T01:44:06;95175.28;;;15.94
42119;BMP280;27783;42.782;23.274;2023-08-01T01:46:31;95171.94;;;15.78
42119;BMP280;27783;42.782;23.274;2023-08-01T01:48:57;95173.50;;;16.03
42119;BMP280;27783;42.782;23.274;2023-08-01T01:51:26;95180.63;;;16.06
42119;BMP280;27783;42.782;23.274;2023-08-01T01:53:51;95184.88;;;16.03
42119;BMP280;27783;42.782;23.274;2023-08-01T01:56:17;95181.28;;;16.10
42119;BMP280;27783;42.782;23.274;2023-08-01T01:58:42;95179.50;;;16.19
42119;BMP280;27783;42.782;23.274;2023-08-01T02:01:07;95186.63;;;16.22
42119;BMP280;27783;42.782;23.274;2023-08-01T02:03:33;95177.22;;;16.05
42119;BMP280;27783;42.782;23.274;2023-08-01T02:05:58;95177.44;;;15.99
42119;BMP280;27783;42.782;23.274;2023-08-01T02:08:23;95180.41;;;16.01
42119;BMP280;27783;42.782;23.274;2023-08-01T02:10:49;95171.06;;;15.96
42119;BMP280;27783;42.782;23.274;2023-08-01T02:13:14;95180.41;;;16.01
42119;BMP280;27783;42.782;23.274;2023-08-01T02:15:40;95182.66;;;16.02
42119;BMP280;27783;42.782;23.274;2023-08-01T02:18:05;95178.09;;;16.02
42119;BMP280;27783;42.782;23.274;2023-08-01T02:20:30;95181.81;;;16.05
42119;BMP280;27783;42.782;23.274;2023-08-01T02:22:56;95181.81;;;16.05
42119;BMP280;27783;42.782;23.274;2023-08-01T02:25:22;95186.66;;;15.94
42119;BMP280;27783;42.782;23.274;2023-08-01T02:27:47;95167.66;;;15.96
42119;BMP280;27783;42.782;23.274;2023-08-01T02:30:12;95180.03;;;15.86
42119;BMP280;27783;42.782;23.274;2023-08-01T02:32:38;95170.88;;;15.87
42119;BMP280;27783;42.782;23.274;2023-08-01T02:35:04;95168.91;;;15.91
42119;BMP280;27783;42.782;23.274;2023-08-01T02:37:29;95169.97;;;15.94
42119;BMP280;27783;42.782;23.274;2023-08-01T02:39:55;95173.22;;;15.85
42119;BMP280;27783;42.782;23.274;2023-08-01T02:42:20;95176.59;;;15.74
42119;BMP280;27783;42.782;23.274;2023-08-01T02:44:45;95175.13;;;15.73
42119;BMP280;27783;42.782;23.274;2023-08-01T02:47:11;95173.53;;;15.75
42119;BMP280;27783;42.782;23.274;2023-08-01T02:49:36;95179.78;;;15.69
42119;BMP280;27783;42.782;23.274;2023-08-01T02:52:01;95174.25;;;15.64
42119;BMP280;27783;42.782;23.274;2023-08-01T02:54:27;95173.63;;;15.72
42119;BMP280;27783;42.782;23.274;2023-08-01T02:56:52;95180.28;;;15.92
42119;BMP280;27783;42.782;23.274;2023-08-01T02:59:18;95181.50;;;15.87
42119;BMP280;27783;42.782;23.274;2023-08-01T03:01:43;95187.50;;;15.91
42119;BMP280;27783;42.782;23.274;2023-08-01T03:04:09;95182.84;;;15.95
42119;BMP280;27783;42.782;23.274;2023-08-01T03:06:37;95189.75;;;15.93
42119;BMP280;27783;42.782;23.274;2023-08-01T03:09:02;95185.34;;;15.86
42119;BMP280;27783;42.782;23.274;2023-08-01T03:11:28;95181.19;;;15.73
42119;BMP280;27783;42.782;23.274;2023-08-01T03:13:54;95183.09;;;15.73
42119;BMP280;27783;42.782;23.274;2023-08-01T03:16:19;95190.06;;;15.67
42119;BMP280;27783;42.782;23.274;2023-08-01T03:18:45;95193.34;;;15.59
42119;BMP280;27783;42.782;23.274;2023-08-01T03:21:10;95194.31;;;15.65
42119;BMP280;27783;42.782;23.274;2023-08-01T03:23:36;95193.34;;;15.16
42119;BMP280;27783;42.782;23.274;2023-08-01T03:26:02;95185.34;;;15.31
42119;BMP280;27783;42.782;23.274;2023-08-01T03:28:27;95193.19;;;15.22
42119;BMP280;27783;42.782;23.274;2023-08-01T03:30:53;95192.88;;;15.05
42119;BMP280;27783;42.782;23.274;2023-08-01T03:33:20;95203.13;;;15.18
42119;BMP280;27783;42.782;23.274;2023-08-01T03:35:45;95205.53;;;14.82
42119;BMP280;27783;42.782;23.274;2023-08-01T03:38:11;95197.53;;;15.01
42119;BMP280;27783;42.782;23.274;2023-08-01T03:40:36;95204.84;;;14.97
42119;BMP280;27783;42.782;23.274;2023-08-01T03:43:04;95195.19;;;15.03
42119;BMP280;27783;42.782;23.274;2023-08-01T03:45:31;95196.97;;;14.94
42119;BMP280;27783;42.782;23.274;2023-08-01T03:47:56;95196.69;;;15.04
42119;BMP280;27783;42.782;23.274;2023-08-01T03:50:22;95198.34;;;14.98
42119;BMP280;27783;42.782;23.274;2023-08-01T03:52:47;95201.00;;;14.98
42119;BMP280;27783;42.782;23.274;2023-08-01T03:55:13;95195.59;;;15.01
42119;BMP280;27783;42.782;23.274;2023-08-01T03:57:38;95203.47;;;15.20
42119;BMP280;27783;42.782;23.274;2023-08-01T04:00:07;95206.00;;;15.39
42119;BMP280;27783;42.782;23.274;2023-08-01T04:02:39;95202.19;;;15.40
42119;BMP280;27783;42.782;23.274;2023-08-01T04:05:05;95203.66;;;15.57
42119;BMP280;27783;42.782;23.274;2023-08-01T04:07:31;95203.59;;;15.72
42119;BMP280;27783;42.782;23.274;2023-08-01T04:09:56;95209.59;;;15.88
42119;BMP280;27783;42.782;23.274;2023-08-01T04:12:21;95207.63;;;16.04
42119;BMP280;27783;42.782;23.274;2023-08-01T04:14:47;95205.09;;;16.13
42119;BMP280;27783;42.782;23.274;2023-08-01T04:17:12;95222.50;;;15.74
42119;BMP280;27783;42.782;23.274;2023-08-01T04:19:38;95213.41;;;15.87
42119;BMP280;27783;42.782;23.274;2023-08-01T04:22:03;95209.03;;;15.81
42119;BMP280;27783;42.782;23.274;2023-08-01T04:24:28;95221.72;;;15.89
42119;BMP280;27783;42.782;23.274;2023-08-01T04:26:56;95219.03;;;16.05
42119;BMP280;27783;42.782;23.274;2023-08-01T04:29:21;95226.16;;;16.08
42119;BMP280;27783;42.782;23.274;2023-08-01T04:31:47;95218.63;;;16.18
42119;BMP280;27783;42.782;23.274;2023-08-01T04:34:12;95210.75;;;16.15
42119;BMP280;27783;42.782;23.274;2023-08-01T04:36:37;95218.13;;;16.35
42119;BMP280;27783;42.782;23.274;2023-08-01T04:39:03;95212.50;;;16.46
42119;BMP280;27783;42.782;23.274;2023-08-01T04:41:28;95211.41;;;16.31
42119;BMP280;27783;42.782;23.274;2023-08-01T04:43:53;95212.91;;;16.56
42119;BMP280;27783;42.782;23.274;2023-08-01T04:46:19;95203.13;;;16.66
42119;BMP280;27783;42.782;23.274;2023-08-01T04:48:44;95202.25;;;16.81
42119;BMP280;27783;42.782;23.274;2023-08-01T04:51:09;95199.94;;;16.95
42119;BMP280;27783;42.782;23.274;2023-08-01T04:53:35;95196.72;;;17.12
42119;BMP280;27783;42.782;23.274;2023-08-01T04:56:00;95203.50;;;17.58
42119;BMP280;27783;42.782;23.274;2023-08-01T04:58:25;95205.66;;;17.84
42119;BMP280;27783;42.782;23.274;2023-08-01T05:00:51;95201.19;;;17.68
42119;BMP280;27783;42.782;23.274;2023-08-01T05:03:16;95210.88;;;17.54
42119;BMP280;27783;42.782;23.274;2023-08-01T05:05:42;95200.28;;;17.63
42119;BMP280;27783;42.782;23.274;2023-08-01T05:08:07;95193.88;;;17.93
42119;BMP280;27783;42.782;23.274;2023-08-01T05:10:32;95199.81;;;17.97
42119;BMP280;27783;42.782;23.274;2023-08-01T05:12:58;95193.25;;;18.10
42119;BMP280;27783;42.782;23.274;2023-08-01T05:15:23;95211.25;;;18.27
42119;BMP280;27783;42.782;23.274;2023-08-01T05:17:49;95204.44;;;18.26
42119;BMP280;27783;42.782;23.274;2023-08-01T05:20:15;95202.59;;;18.44
42119;BMP280;27783;42.782;23.274;2023-08-01T05:22:40;95210.81;;;18.50
42119;BMP280;27783;42.782;23.274;2023-08-01T05:25:06;95212.34;;;19.06
42119;BMP280;27783;42.782;23.274;2023-08-01T05:27:31;95213.44;;;19.26
42119;BMP280;27783;42.782;23.274;2023-08-01T05:29:58;95209.16;;;18.73
42119;BMP280;27783;42.782;23.274;2023-08-01T05:32:24;95207.78;;;18.69
42119;BMP280;27783;42.782;23.274;2023-08-01T05:34:49;95215.56;;;18.84
42119;BMP280;27783;42.782;23.274;2023-08-01T05:37:14;95206.56;;;18.99
42119;BMP280;27783;42.782;23.274;2023-08-01T05:39:40;95203.25;;;19.42
42119;BMP280;27783;42.782;23.274;2023-08-01T05:42:05;95204.00;;;19.95
42119;BMP280;27783;42.782;23.274;2023-08-01T05:44:33;95199.78;;;20.47
42119;BMP280;27783;42.782;23.274;2023-08-01T05:46:59;95202.78;;;20.22
42119;BMP280;27783;42.782;23.274;2023-08-01T05:49:24;95203.22;;;20.47
42119;BMP280;27783;42.782;23.274;2023-08-01T05:51:50;95193.16;;;21.05
42119;BMP280;27783;42.782;23.274;2023-08-01T05:54:15;95198.09;;;21.07
42119;BMP280;27783;42.782;23.274;2023-08-01T05:56:40;95199.47;;;20.94
42119;BMP280;27783;42.782;23.274;2023-08-01T05:59:06;95197.84;;;21.88
42119;BMP280;27783;42.782;23.274;2023-08-01T06:01:31;95190.75;;;22.13
42119;BMP280;27783;42.782;23.274;2023-08-01T06:03:56;95181.59;;;22.33
42119;BMP280;27783;42.782;23.274;2023-08-01T06:06:22;95185.47;;;22.32
42119;BMP280;27783;42.782;23.274;2023-08-01T06:08:47;95186.78;;;22.37
42119;BMP280;27783;42.782;23.274;2023-08-01T06:11:13;95180.69;;;22.64
42119;BMP280;27783;42.782;23.274;2023-08-01T06:13:38;95185.94;;;22.87
42119;BMP280;27783;42.782;23.274;2023-08-01T06:16:03;95182.34;;;23.23
42119;BMP280;27783;42.782;23.274;2023-08-01T06:18:29;95175.63;;;23.72
42119;BMP280;27783;42.782;23.274;2023-08-01T06:20:54;95182.34;;;23.09
42119;BMP280;27783;42.782;23.274;2023-08-01T06:23:20;95176.41;;;23.58
42119;BMP280;27783;42.782;23.274;2023-08-01T06:25:45;95170.69;;;23.71
42119;BMP280;27783;42.782;23.274;2023-08-01T06:28:10;95177.19;;;24.23
42119;BMP280;27783;42.782;23.274;2023-08-01T06:30:36;95170.19;;;23.67
42119;BMP280;27783;42.782;23.274;2023-08-01T06:33:02;95172.13;;;24.10
42119;BMP280;27783;42.782;23.274;2023-08-01T06:35:27;95161.34;;;24.55
42119;BMP280;27783;42.782;23.274;2023-08-01T06:37:52;95161.56;;;24.87
42119;BMP280;27783;42.782;23.274;2023-08-01T06:40:18;95160.72;;;24.70
42119;BMP280;27783;42.782;23.274;2023-08-01T06:42:43;95159.69;;;24.98
42119;BMP280;27783;42.782;23.274;2023-08-01T06:45:09;95168.56;;;24.68
42119;BMP280;27783;42.782;23.274;2023-08-01T06:47:34;95168.13;;;25.10
42119;BMP280;27783;42.782;23.274;2023-08-01T06:50:00;95171.59;;;24.26
42119;BMP280;27783;42.782;23.274;2023-08-01T06:52:25;95156.56;;;25.05
42119;BMP280;27783;42.782;23.274;2023-08-01T06:54:50;95155.75;;;24.63
42119;BMP280;27783;42.782;23.274;2023-08-01T06:57:17;95166.75;;;24.90
42119;BMP280;27783;42.782;23.274;2023-08-01T06:59:42;95161.91;;;25.86
42119;BMP280;27783;42.782;23.274;2023-08-01T07:02:08;95157.13;;;25.55
42119;BMP280;27783;42.782;23.274;2023-08-01T07:04:34;95155.53;;;25.84
42119;BMP280;27783;42.782;23.274;2023-08-01T07:06:59;95148.94;;;26.01
42119;BMP280;27783;42.782;23.274;2023-08-01T07:09:25;95147.97;;;25.47
42119;BMP280;27783;42.782;23.274;2023-08-01T07:11:50;95143.09;;;25.10
42119;BMP280;27783;42.782;23.274;2023-08-01T07:14:17;95149.31;;;25.73
42119;BMP280;27783;42.782;23.274;2023-08-01T07:16:42;95142.84;;;26.27
42119;BMP280;27783;42.782;23.274;2023-08-01T07:19:08;95146.81;;;26.37
42119;BMP280;27783;42.782;23.274;2023-08-01T07:21:33;95139.94;;;26.41
42119;BMP280;27783;42.782;23.274;2023-08-01T07:23:59;95136.50;;;26.73
42119;BMP280;27783;42.782;23.274;2023-08-01T07:26:24;95135.94;;;27.27
42119;BMP280;27783;42.782;23.274;2023-08-01T07:28:49;95126.91;;;26.98
42119;BMP280;27783;42.782;23.274;2023-08-01T07:40:30;95120.75;;;27.85
42119;BMP280;27783;42.782;23.274;2023-08-01T07:42:56;95117.03;;;27.88
42119;BMP280;27783;42.782;23.274;2023-08-01T07:45:26;95119.63;;;27.54
42119;BMP280;27783;42.782;23.274;2023-08-01T07:47:52;95110.59;;;28.64
42119;BMP280;27783;42.782;23.274;2023-08-01T07:50:17;95115.25;;;28.01
42119;BMP280;27783;42.782;23.274;2023-08-01T07:52:43;95119.09;;;27.66
42119;BMP280;27783;42.782;23.274;2023-08-01T07:55:09;95110.81;;;29.00
42119;BMP280;27783;42.782;23.274;2023-08-01T07:57:42;95108.50;;;29.56
42119;BMP280;27783;42.782;23.274;2023-08-01T08:00:12;95107.19;;;29.62
42119;BMP280;27783;42.782;23.274;2023-08-01T08:02:38;95102.41;;;28.75
42119;BMP280;27783;42.782;23.274;2023-08-01T08:05:03;95109.00;;;28.17
42119;BMP280;27783;42.782;23.274;2023-08-01T08:07:30;95092.97;;;29.05
42119;BMP280;27783;42.782;23.274;2023-08-01T08:09:55;95095.94;;;28.83
42119;BMP280;27783;42.782;23.274;2023-08-01T08:12:22;95079.22;;;28.97
42119;BMP280;27783;42.782;23.274;2023-08-01T08:14:47;95080.59;;;29.09
42119;BMP280;27783;42.782;23.274;2023-08-01T08:17:13;95073.28;;;30.05
42119;BMP280;27783;42.782;23.274;2023-08-01T08:19:38;95083.72;;;30.49
42119;BMP280;27783;42.782;23.274;2023-08-01T08:22:04;95083.50;;;29.81
42119;BMP280;27783;42.782;23.274;2023-08-01T08:24:29;95079.91;;;27.73
42119;BMP280;27783;42.782;23.274;2023-08-01T08:26:55;95075.28;;;29.45
42119;BMP280;27783;42.782;23.274;2023-08-01T08:29:20;95078.75;;;28.99
42119;BMP280;27783;42.782;23.274;2023-08-01T08:31:46;95064.41;;;28.75
42119;BMP280;27783;42.782;23.274;2023-08-01T08:34:12;95061.31;;;28.32
42119;BMP280;27783;42.782;23.274;2023-08-01T11:03:37;94864.88;;;35.11
42119;BMP280;27783;42.782;23.274;2023-08-01T11:06:02;94844.69;;;36.81
42119;BMP280;27783;42.782;23.274;2023-08-01T11:08:40;94857.53;;;34.02
42119;BMP280;27783;42.782;23.274;2023-08-01T11:11:10;94851.09;;;33.64
42119;BMP280;27783;42.782;23.274;2023-08-01T11:13:36;94857.16;;;32.51
42119;BMP280;27783;42.782;23.274;2023-08-01T11:16:03;94846.25;;;32.51
42119;BMP280;27783;42.782;23.274;2023-08-01T11:18:30;94841.84;;;33.17
42119;BMP280;27783;42.782;23.274;2023-08-01T11:20:56;94841.91;;;32.56
42119;BMP280;27783;42.782;23.274;2023-08-01T11:23:28;94842.72;;;33.05
42119;BMP280;27783;42.782;23.274;2023-08-01T11:25:55;94843.06;;;33.09
42119;BMP280;27783;42.782;23.274;2023-08-01T11:28:21;94835.34;;;33.28
42119;BMP280;27783;42.782;23.274;2023-08-01T11:30:48;94828.38;;;33.27
42119;BMP280;27783;42.782;23.274;2023-08-01T11:33:22;94832.69;;;32.73
42119;BMP280;27783;42.782;23.274;2023-08-01T11:35:55;94819.19;;;33.59
42119;BMP280;27783;42.782;23.274;2023-08-01T11:38:26;94813.75;;;34.02
42119;BMP280;27783;42.782;23.274;2023-08-01T11:40:54;94814.09;;;34.21
42119;BMP280;27783;42.782;23.274;2023-08-01T11:43:21;94814.41;;;33.30
42119;BMP280;27783;42.782;23.274;2023-08-01T11:45:53;94806.41;;;33.39
42119;BMP280;27783;42.782;23.274;2023-08-01T11:48:21;94801.38;;;33.87
42119;BMP280;27783;42.782;23.274;2023-08-01T11:50:46;94803.19;;;35.34
42119;BMP280;27783;42.782;23.274;2023-08-01T11:53:21;94809.59;;;34.91
42119;BMP280;27783;42.782;23.274;2023-08-01T11:55:48;94800.81;;;33.96
42119;BMP280;27783;42.782;23.274;2023-08-01T11:58:14;94793.97;;;34.77
42119;BMP280;27783;42.782;23.274;2023-08-01T12:00:42;94787.66;;;34.98
42119;BMP280;27783;42.782;23.274;2023-08-01T12:03:09;94793.88;;;34.16
42119;BMP280;27783;42.782;23.274;2023-08-01T12:05:39;94797.34;;;34.24
42119;BMP280;27783;42.782;23.274;2023-08-01T12:08:14;94779.25;;;35.34
42119;BMP280;27783;42.782;23.274;2023-08-01T12:10:40;94769.91;;;35.68
42119;BMP280;27783;42.782;23.274;2023-08-01T12:13:06;94776.44;;;34.72
42119;BMP280;27783;42.782;23.274;2023-08-01T12:15:32;94765.97;;;35.79
42119;BMP280;27783;42.782;23.274;2023-08-01T12:17:57;94765.78;;;35.53
42119;BMP280;27783;42.782;23.274;2023-08-01T12:20:23;94765.78;;;33.72
42119;BMP280;27783;42.782;23.274;2023-08-01T12:22:48;94752.13;;;34.76
42119;BMP280;27783;42.782;23.274;2023-08-01T12:25:13;94761.75;;;34.24
42119;BMP280;27783;42.782;23.274;2023-08-01T12:27:39;94771.09;;;33.78
42119;BMP280;27783;42.782;23.274;2023-08-01T12:30:05;94757.25;;;34.80
42119;BMP280;27783;42.782;23.274;2023-08-01T12:32:30;94757.00;;;34.39
42119;BMP280;27783;42.782;23.274;2023-08-01T12:34:55;94764.50;;;34.17
42119;BMP280;27783;42.782;23.274;2023-08-01T12:37:21;94749.38;;;34.01
42119;BMP280;27783;42.782;23.274;2023-08-01T12:39:46;94757.94;;;34.13
42119;BMP280;27783;42.782;23.274;2023-08-01T12:42:11;94744.06;;;34.33
42119;BMP280;27783;42.782;23.274;2023-08-01T12:44:37;94757.78;;;33.67
42119;BMP280;27783;42.782;23.274;2023-08-01T12:47:02;94751.03;;;33.82
42119;BMP280;27783;42.782;23.274;2023-08-01T12:49:28;94740.94;;;35.51
42119;BMP280;27783;42.782;23.274;2023-08-01T12:51:54;94730.38;;;34.78
42119;BMP280;27783;42.782;23.274;2023-08-01T12:54:19;94738.47;;;34.62
42119;BMP280;27783;42.782;23.274;2023-08-01T12:56:44;94733.34;;;33.91
42119;BMP280;27783;42.782;23.274;2023-08-01T12:59:10;94736.09;;;33.91
42119;BMP280;27783;42.782;23.274;2023-08-01T13:01:36;94723.06;;;35.19
42119;BMP280;27783;42.782;23.274;2023-08-01T13:04:01;94704.09;;;35.85
42119;BMP280;27783;42.782;23.274;2023-08-01T13:06:27;94713.50;;;35.51
42119;BMP280;27783;42.782;23.274;2023-08-01T13:08:52;94706.75;;;35.52
42119;BMP280;27783;42.782;23.274;2023-08-01T13:11:18;94707.91;;;35.11
42119;BMP280;27783;42.782;23.274;2023-08-01T13:13:43;94700.88;;;34.62
42119;BMP280;27783;42.782;23.274;2023-08-01T13:16:09;94705.00;;;34.78
42119;BMP280;27783;42.782;23.274;2023-08-01T13:18:35;94710.50;;;34.70
42119;BMP280;27783;42.782;23.274;2023-08-01T13:21:01;94687.38;;;35.50
42119;BMP280;27783;42.782;23.274;2023-08-01T13:23:26;94699.75;;;35.82
42119;BMP280;27783;42.782;23.274;2023-08-01T13:25:52;94690.69;;;35.49
42119;BMP280;27783;42.782;23.274;2023-08-01T13:28:17;94697.50;;;35.40
42119;BMP280;27783;42.782;23.274;2023-08-01T13:30:42;94683.53;;;34.98
42119;BMP280;27783;42.782;23.274;2023-08-01T13:33:08;94686.06;;;34.27
42119;BMP280;27783;42.782;23.274;2023-08-01T13:35:33;94690.19;;;34.42
42119;BMP280;27783;42.782;23.274;2023-08-01T13:37:59;94684.59;;;34.64
42119;BMP280;27783;42.782;23.274;2023-08-01T13:40:25;94693.25;;;33.57
42119;BMP280;27783;42.782;23.274;2023-08-01T13:42:51;94685.22;;;33.88
42119;BMP280;27783;42.782;23.274;2023-08-01T13:45:16;94687.78;;;33.64
42119;BMP280;27783;42.782;23.274;2023-08-01T13:47:42;94684.66;;;33.82
42119;BMP280;27783;42.782;23.274;2023-08-01T13:50:07;94678.38;;;34.18
42119;BMP280;27783;42.782;23.274;2023-08-01T13:52:34;94664.13;;;35.03
42119;BMP280;27783;42.782;23.274;2023-08-01T13:54:59;94665.28;;;34.55
42119;BMP280;27783;42.782;23.274;2023-08-01T13:57:27;94669.09;;;34.98
42119;BMP280;27783;42.782;23.274;2023-08-01T13:59:53;94665.50;;;33.97
42119;BMP280;27783;42.782;23.274;2023-08-01T14:02:19;94673.88;;;33.98
42119;BMP280;27783;42.782;23.274;2023-08-01T14:04:44;94656.97;;;35.08
42119;BMP280;27783;42.782;23.274;2023-08-01T14:07:09;94644.56;;;35.31
42119;BMP280;27783;42.782;23.274;2023-08-01T14:09:35;94655.06;;;34.55
42119;BMP280;27783;42.782;23.274;2023-08-01T14:12:01;94659.69;;;33.78
42119;BMP280;27783;42.782;23.274;2023-08-01T14:14:27;94654.78;;;33.84
42119;BMP280;27783;42.782;23.274;2023-08-01T14:16:52;94646.16;;;34.48
42119;BMP280;27783;42.782;23.274;2023-08-01T14:19:17;94655.59;;;34.23
42119;BMP280;27783;42.782;23.274;2023-08-01T14:21:43;94651.94;;;34.13
42119;BMP280;27783;42.782;23.274;2023-08-01T14:24:08;94655.31;;;33.75
42119;BMP280;27783;42.782;23.274;2023-08-01T14:26:34;94655.69;;;33.79
42119;BMP280;27783;42.782;23.274;2023-08-01T14:28:59;94653.84;;;33.89
42119;BMP280;27783;42.782;23.274;2023-08-01T14:31:24;94651.31;;;33.03
42119;BMP280;27783;42.782;23.274;2023-08-01T14:33:50;94653.50;;;33.19
42119;BMP280;27783;42.782;23.274;2023-08-01T14:36:15;94655.13;;;33.08
42119;BMP280;27783;42.782;23.274;2023-08-01T14:38:41;94657.16;;;33.22
42119;BMP280;27783;42.782;23.274;2023-08-01T14:41:06;94643.38;;;34.16
42119;BMP280;27783;42.782;23.274;2023-08-01T14:43:31;94644.19;;;33.59
42119;BMP280;27783;42.782;23.274;2023-08-01T14:46:01;94657.50;;;32.97
42119;BMP280;27783;42.782;23.274;2023-08-01T14:48:28;94641.34;;;33.28
42119;BMP280;27783;42.782;23.274;2023-08-01T14:50:56;94645.50;;;33.14
42119;BMP280;27783;42.782;23.274;2023-08-01T14:53:21;94644.59;;;33.33
42119;BMP280;27783;42.782;23.274;2023-08-01T14:55:56;94633.31;;;33.51
42119;BMP280;27783;42.782;23.274;2023-08-01T14:58:25;94627.94;;;33.90
42119;BMP280;27783;42.782;23.274;2023-08-01T15:00:52;94625.97;;;33.83
42119;BMP280;27783;42.782;23.274;2023-08-01T15:03:17;94621.06;;;33.45
42119;BMP280;27783;42.782;23.274;2023-08-01T15:05:44;94625.44;;;33.63
42119;BMP280;27783;42.782;23.274;2023-08-01T15:08:09;94617.97;;;33.56
42119;BMP280;27783;42.782;23.274;2023-08-01T15:10:37;94615.97;;;33.20
42119;BMP280;27783;42.782;23.274;2023-08-01T15:13:03;94612.34;;;33.47
42119;BMP280;27783;42.782;23.274;2023-08-01T15:15:35;94607.78;;;33.49
42119;BMP280;27783;42.782;23.274;2023-08-01T15:18:01;94605.59;;;34.15
42119;BMP280;27783;42.782;23.274;2023-08-01T15:20:26;94587.19;;;33.26
42119;BMP280;27783;42.782;23.274;2023-08-01T15:22:53;94600.25;;;32.69
42119;BMP280;27783;42.782;23.274;2023-08-01T15:25:21;94595.88;;;32.66
42119;BMP280;27783;42.782;23.274;2023-08-01T15:27:46;94593.38;;;32.83
42119;BMP280;27783;42.782;23.274;2023-08-01T15:30:12;94595.88;;;32.66
42119;BMP280;27783;42.782;23.274;2023-08-01T15:32:37;94592.66;;;32.75
42119;BMP280;27783;42.782;23.274;2023-08-01T15:35:14;94594.63;;;32.67
42119;BMP280;27783;42.782;23.274;2023-08-01T15:37:40;94591.34;;;32.76
42119;BMP280;27783;42.782;23.274;2023-08-01T15:40:06;94587.22;;;33.12
42119;BMP280;27783;42.782;23.274;2023-08-01T15:42:32;94586.66;;;33.06
42119;BMP280;27783;42.782;23.274;2023-08-01T15:44:59;94579.00;;;32.75
42119;BMP280;27783;42.782;23.274;2023-08-01T15:47:24;94579.94;;;33.14
42119;BMP280;27783;42.782;23.274;2023-08-01T15:49:52;94589.03;;;32.95
42119;BMP280;27783;42.782;23.274;2023-08-01T15:52:17;94592.22;;;32.42
42119;BMP280;27783;42.782;23.274;2023-08-01T15:54:45;94586.84;;;32.86
42119;BMP280;27783;42.782;23.274;2023-08-01T15:57:11;94586.22;;;32.51
42119;BMP280;27783;42.782;23.274;2023-08-01T15:59:36;94604.03;;;31.96
42119;BMP280;27783;42.782;23.274;2023-08-01T16:02:03;94583.28;;;31.85
42119;BMP280;27783;42.782;23.274;2023-08-01T16:04:30;94595.84;;;31.96
42119;BMP280;27783;42.782;23.274;2023-08-01T16:06:56;94590.94;;;31.87
42119;BMP280;27783;42.782;23.274;2023-08-01T16:09:34;94591.88;;;32.04
42119;BMP280;27783;42.782;23.274;2023-08-01T16:12:01;94586.63;;;32.06
42119;BMP280;27783;42.782;23.274;2023-08-01T16:14:27;94577.59;;;32.25
42119;BMP280;27783;42.782;23.274;2023-08-01T16:16:54;94580.13;;;32.16
42119;BMP280;27783;42.782;23.274;2023-08-01T16:19:20;94597.69;;;31.93
42119;BMP280;27783;42.782;23.274;2023-08-01T16:21:46;94586.28;;;31.75
42119;BMP280;27783;42.782;23.274;2023-08-01T16:24:12;94596.09;;;31.78
42119;BMP280;27783;42.782;23.274;2023-08-01T16:26:37;94593.16;;;31.68